Flight Track Log - Related Links

Times and Time Zones

All times are in EDT time to prevent confusion due to time zone crossing. See the AAL1884 flight status page for this flight to view local times or setup timezone preferences in your user account.

Time Position Orientation Groundspeed Altitude Reporting Facility
EDT Latitude Longitude Course Direction KTS MPH feet Rate Location/Type
Sun 04:29:26 PM 32.8667 -97.0333 65° Northeast 164 189 1,900  Level Dallas / Fort Worth TRACON
Sun 04:30:50 PM 32.8000 -97.0333 180° South 224 258 4,400 1,957 Climbing Dallas / Fort Worth TRACON
Sun 04:31:00 PM 32.6833 -96.8316 90° East  Level FlightAware Approximate
Sun 04:31:44 PM 32.7333 -97.0333 180° South 261 300 6,400  Level Dallas / Fort Worth TRACON
Sun 04:32:00 PM 32.7155 -96.7037 68° East  Level FlightAware Approximate
Sun 04:32:44 PM 32.6833 -96.9667 132° Southeast 286 329 9,000  Level Dallas / Fort Worth TRACON
Sun 04:33:00 PM 32.7574 -96.5778 68° East  Level FlightAware Approximate
Sun 04:34:00 PM 32.8036 -96.4541 65° Northeast  Level FlightAware Approximate
Sun 04:34:30 PM 32.7064 -96.7764 82° East 327 376 10,000  Level Fort Worth Center
Sun 04:35:30 PM 32.7475 -96.6625 67° East 369 425 11,600 2,300 Climbing Fort Worth Center
Sun 04:36:30 PM 32.7844 -96.5511 68° East 368 423 14,600 2,850 Climbing Fort Worth Center
Sun 04:37:30 PM 32.8233 -96.4394 67° East 362 417 17,300 2,350 Climbing Fort Worth Center
Sun 04:38:30 PM 32.8581 -96.3375 68° East 356 410 19,300 2,050 Climbing Fort Worth Center
Sun 04:39:30 PM 32.8653 -96.2014 86° East 362 417 21,400 1,800 Climbing Fort Worth Center
Sun 04:40:30 PM 32.8681 -96.0853 88° East 382 440 22,900 1,500 Climbing Fort Worth Center
Sun 04:41:30 PM 32.8728 -95.9392 88° East 394 453 24,400 1,450 Climbing Fort Worth Center
Sun 04:42:30 PM 32.8775 -95.8056 88° East 401 461 25,800 1,350 Climbing Fort Worth Center
Sun 04:43:30 PM 32.8817 -95.6619 88° East 411 473 27,100 1,250 Climbing Fort Worth Center
Sun 04:44:30 PM 32.8797 -95.5186 91° East 425 489 28,300 1,150 Climbing Fort Worth Center
Sun 04:45:30 PM 32.8858 -95.3750 87° East 434 499 29,400 1,000 Climbing Fort Worth Center
Sun 04:46:30 PM 32.8961 -95.2411 85° East 440 506 30,300 850 Climbing Fort Worth Center
Sun 04:47:30 PM 32.9206 -95.0919 79° East 446 513 31,100 950 Climbing Fort Worth Center
Sun 04:48:30 PM 32.9447 -94.9406 79° East 451 519 32,200 950 Climbing Fort Worth Center
Sun 04:49:30 PM 32.9667 -94.7889 80° East 451 519 33,000 400 Climbing Fort Worth Center
Sun 04:50:30 PM 32.9908 -94.6394 79° East 451 519 33,000  Level Fort Worth Center
Sun 04:51:30 PM 33.0125 -94.4903 80° East 451 519 33,000  Level Fort Worth Center
Sun 04:52:30 PM 33.0317 -94.3408 81° East 451 519 33,000  Level Fort Worth Center
Sun 04:53:30 PM 33.0425 -94.1869 85° East 451 519 33,000  Level Fort Worth Center
Sun 04:54:30 PM 33.0281 -94.0339 96° East 451 519 33,000  Level Fort Worth Center
Sun 04:55:30 PM 33.0114 -93.8808 97° East 462 532 33,000  Level Fort Worth Center
Sun 04:56:30 PM 32.9964 -93.7278 97° East 462 532 33,000  Level Fort Worth Center
Sun 04:57:30 PM 32.9792 -93.5703 97° East 467 537 33,000  Level Fort Worth Center
Sun 04:58:30 PM 32.9661 -93.4172 96° East 467 537 33,000  Level Fort Worth Center
Sun 04:59:30 PM 32.9506 -93.2619 97° East 467 537 33,000  Level Fort Worth Center
Sun 05:00:30 PM 32.9331 -93.1069 98° East 467 537 33,000  Level Fort Worth Center
Sun 05:01:30 PM 32.9150 -92.9544 98° East 467 537 33,000  Level Fort Worth Center
Sun 05:02:30 PM 32.8992 -92.7992 97° East 462 532 33,000  Level Fort Worth Center
Sun 05:03:30 PM 32.8808 -92.6444 98° East 462 532 33,000  Level Fort Worth Center
Sun 05:04:30 PM 32.8664 -92.4869 96° East 468 539 33,000 308 Level Fort Worth Center
Sun 05:06:45 PM 32.8181 -92.1272 99° East 461 531 34,000 306 Climbing Memphis Center
Sun 05:07:46 PM 32.7953 -91.9686 100° East 473 544 34,000  Level Memphis Center
Sun 05:08:46 PM 32.7806 -91.8128 96° East 473 544 34,000  Level Memphis Center
Sun 05:09:46 PM 32.7592 -91.6542 99° East 479 551 34,000  Level Memphis Center
Sun 05:10:46 PM 32.7419 -91.5108 98° East 485 558 34,000  Level Memphis Center
Sun 05:11:46 PM 32.7203 -91.3525 99° East 485 558 34,000  Level Memphis Center
Sun 05:12:45 PM 32.7025 -91.1942 98° East 485 558 34,000  Level Memphis Center
Sun 05:13:46 PM 32.6828 -91.0336 98° East 485 558 34,000  Level Memphis Center
Sun 05:14:45 PM 32.6625 -90.8756 99° East 485 558 34,000  Level Memphis Center
Sun 05:15:46 PM 32.6422 -90.7175 99° East 485 558 34,000  Level Memphis Center
Sun 05:16:45 PM 32.6197 -90.5619 100° East 485 558 34,000  Level Memphis Center
Sun 05:17:46 PM 32.6008 -90.3992 98° East 485 558 34,000  Level Memphis Center
Sun 05:18:45 PM 32.5781 -90.2439 100° East 485 558 34,000  Level Memphis Center
Sun 05:19:45 PM 32.5567 -90.0789 99° East 485 558 34,000  Level Memphis Center
Sun 05:20:45 PM 32.5333 -89.9211 100° East 485 558 34,000  Level Memphis Center
Sun 05:21:46 PM 32.5117 -89.7414 98° East 490 564 34,000  Level Memphis Center
Sun 05:22:46 PM 32.4608 -89.5917 112° Southeast 481 554 34,000  Level Memphis Center
Sun 05:23:46 PM 32.3600 -89.5064 144° Southeast 445 512 34,000  Level Memphis Center
Sun 05:24:45 PM 32.2428 -89.4683 165° South 420 483 34,000 -50 Level Memphis Center
Sun 05:25:45 PM 32.1256 -89.4153 159° South 434 499 33,900 -298 Descending Memphis Center
Sun 05:26:46 PM 32.0514 -89.2886 125° Southeast 437 503 33,400 -450 Descending Memphis Center
Sun 05:27:45 PM 32.0750 -89.1292 80° East 411 473 33,000 -200 Descending Memphis Center
Sun 05:28:46 PM 32.1319 -88.9933 64° Northeast 417 480 33,000  Level Memphis Center
Sun 05:29:46 PM 32.1931 -88.8525 63° Northeast 446 513 33,000  Level Memphis Center
Sun 05:30:45 PM 32.2561 -88.7114 62° Northeast 459 528 33,000  Level Memphis Center
Sun 05:32:19 PM 32.3481 -88.5108 61° Northeast 460 529 33,000  Level Atlanta Center
Sun 05:33:19 PM 32.4094 -88.3689 63° Northeast 466 536 33,000  Level Atlanta Center
Sun 05:34:18 PM 32.4506 -88.2108 73° East 466 536 33,000  Level Atlanta Center
Sun 05:35:18 PM 32.4700 -88.0592 81° East 455 524 33,000  Level Atlanta Center
Sun 05:36:18 PM 32.4933 -87.9175 79° East 470 541 33,000  Level Atlanta Center
Sun 05:37:18 PM 32.5294 -87.7661 74° East 476 548 33,000  Level Atlanta Center
Sun 05:38:19 PM 32.5611 -87.6147 76° East 476 548 33,000  Level Atlanta Center
Sun 05:39:18 PM 32.5925 -87.4633 76° East 471 542 33,000  Level Atlanta Center
Sun 05:40:18 PM 32.6258 -87.3117 75° East 471 542 33,000 -100 Level Atlanta Center
Sun 05:41:18 PM 32.6547 -87.1622 77° East 471 542 32,800 -893 Descending Atlanta Center
Sun 05:42:19 PM 32.6897 -87.0106 75° East 471 542 31,200 -1,450 Descending Atlanta Center
Sun 05:43:18 PM 32.7203 -86.8608 76° East 461 531 29,900 -1,100 Descending Atlanta Center
Sun 05:44:19 PM 32.7486 -86.7136 77° East 461 531 29,000 -800 Descending Atlanta Center
Sun 05:45:18 PM 32.7369 -86.5750 96° East 429 494 28,300 -807 Descending Atlanta Center
Sun 05:46:18 PM 32.7042 -86.4481 107° East 405 466 27,400 -650 Descending Atlanta Center
Sun 05:47:18 PM 32.6731 -86.3189 106° East 410 472 27,000 -550 Descending Atlanta Center
Sun 05:48:18 PM 32.6422 -86.1875 106° East 410 472 26,300 -843 Descending Atlanta Center
Sun 05:49:19 PM 32.6089 -86.0533 106° East 405 466 25,300 -992 Descending Atlanta Center
Sun 05:50:19 PM 32.5794 -85.9294 106° East 394 453 24,300 -655 Descending Atlanta Center
Sun 05:51:18 PM 32.5500 -85.8106 106° East 384 442 24,000 -151 Descending Atlanta Center
Sun 05:52:18 PM 32.5203 -85.6894 106° East 384 442 24,000 -200 Level Atlanta Center
Sun 05:53:18 PM 32.5136 -85.5661 94° East 369 425 23,600 -793 Descending Atlanta Center
Sun 05:54:19 PM 32.5878 -85.4761 46° Northeast 337 388 22,400 -1,550 Descending Atlanta Center
Sun 05:55:18 PM 32.6825 -85.3986 35° Northeast 356 410 20,500 -2,000 Descending Atlanta Center
Sun 05:56:19 PM 32.7772 -85.3186 35° Northeast 386 444 18,400 -2,000 Descending Atlanta Center
Sun 05:57:18 PM 32.8678 -85.2408 36° Northeast 401 461 16,500 -1,966 Descending Atlanta Center
Sun 05:58:18 PM 32.9583 -85.1653 35° Northeast 401 461 14,500 -1,736 Descending Atlanta Center
Sun 05:59:19 PM 33.0361 -85.1019 34° Northeast 389 448 13,000 -1,250 Descending Atlanta Center
Sun 06:00:18 PM 33.1181 -85.0308 36° Northeast 371 427 12,000 -500 Descending Atlanta Center
Sun 06:01:19 PM 33.1939 -84.9622 37° Northeast 357 411 12,000 -600 Level Atlanta Center
Sun 06:02:18 PM 33.2817 -84.9283 18° North 318 366 10,800 -1,311 Descending Atlanta Center
Sun 06:03:18 PM 33.3694 -84.9219 North 318 366 9,400 -1,350 Descending Atlanta Center
Sun 06:04:18 PM 33.4614 -84.9128 North 306 352 8,100 -800 Descending Atlanta Center
Sun 06:05:18 PM 33.5408 -84.9036 North 293 337 7,800 -550 Descending Atlanta Center
Sun 06:06:18 PM 33.6222 -84.8869 10° North 293 337 7,000 -597 Descending Atlanta Center
Sun 06:08:19 PM 33.6317 -84.7300 86° East 201 231 6,000 -496 Descending Atlanta Center

Login

Don't have an account? Register now (free) for customized features, flight alerts, and more!